Time;durP1;ratioP1;P1;durP2;ratioP2;P2;SDS_P1;SDS_P2;PMS_P1;PMS_P2;Temp;Humidity;BMP_temperature;BMP_pressure;BME280_temperature;BME280_humidity;BME280_pressure;Samples;Min_cycle;Max_cycle;Signal;HPM_P1;HPM_P2
2022/05/22 00:01:49;;;;;;;17.37;7.93;;;;;;;-145.18;100.00;60484.78;5035011;28;20481;-66
2022/05/22 00:04:15;;;;;;;16.93;8.37;;;;;;;-145.18;100.00;60484.78;5036609;28;20029;-66
2022/05/22 00:06:41;;;;;;;18.77;8.80;;;;;;;-145.18;100.00;60484.78;5046879;28;20033;-67
2022/05/22 00:09:06;;;;;;;19.60;8.50;;;;;;;-145.18;100.00;60484.78;5032151;28;20038;-67
2022/05/22 00:11:32;;;;;;;20.67;9.33;;;;;;;-145.18;100.00;60484.78;5031956;28;20104;-67
2022/05/22 00:13:57;;;;;;;18.83;8.90;;;;;;;-145.18;100.00;60484.78;5041411;28;20040;-66
2022/05/22 00:16:40;;;;;;;16.77;8.73;;;;;;;-145.18;100.00;60484.78;5048609;28;20491;-67
2022/05/22 00:19:13;;;;;;;19.33;9.13;;;;;;;-145.18;100.00;60484.78;5043628;28;20034;-67
2022/05/22 00:21:39;;;;;;;20.40;8.70;;;;;;;-145.18;100.00;60484.78;5039268;28;20032;-67
2022/05/22 00:24:06;;;;;;;23.80;9.47;;;;;;;-145.18;100.00;60484.78;5030728;28;20143;-67
2022/05/22 00:26:31;;;;;;;16.40;8.33;;;;;;;-145.18;100.00;60484.78;5037906;28;20040;-66
2022/05/22 00:28:57;;;;;;;17.90;8.83;;;;;;;-145.18;100.00;60484.78;5031576;28;20741;-66
2022/05/22 00:31:22;;;;;;;21.83;8.00;;;;;;;-145.18;100.00;60484.78;5033517;28;20025;-67
2022/05/22 00:33:47;;;;;;;15.10;7.43;;;;;;;-145.18;100.00;60484.78;5036811;28;20098;-67
2022/05/22 00:36:13;;;;;;;18.53;8.97;;;;;;;-145.18;100.00;60484.78;5031958;28;20052;-67
2022/05/22 00:38:39;;;;;;;18.23;8.57;;;;;;;-145.18;100.00;60484.78;5033882;28;20480;-67
2022/05/22 00:41:06;;;;;;;17.47;8.73;;;;;;;-145.18;100.00;60484.78;5036024;28;20040;-67
2022/05/22 00:43:36;;;;;;;16.50;7.67;;;;;;;-145.18;100.00;60484.78;5030121;28;20037;-67
2022/05/22 00:46:05;;;;;;;16.93;8.13;;;;;;;-145.18;100.00;60484.78;5029470;28;20053;-66
2022/05/22 00:48:32;;;;;;;19.00;7.97;;;;;;;-145.18;100.00;60484.78;5032122;28;20032;-66
2022/05/22 00:51:12;;;;;;;21.53;8.43;;;;;;;-145.18;100.00;60484.78;5043150;28;20497;-67
2022/05/22 00:53:41;;;;;;;17.47;8.97;;;;;;;-145.18;100.00;60484.78;5046489;28;20024;-66
2022/05/22 00:56:12;;;;;;;18.40;9.97;;;;;;;-145.18;100.00;60484.78;5047662;28;20492;-66
2022/05/22 00:58:38;;;;;;;21.88;11.10;;;;;;;-145.18;100.00;60484.78;5036336;28;20026;-67
2022/05/22 01:01:04;;;;;;;16.40;9.67;;;;;;;-145.18;100.00;60484.78;5038664;28;20028;-66
2022/05/22 01:03:31;;;;;;;19.40;9.00;;;;;;;-145.18;100.00;60484.78;5043104;28;20025;-66
2022/05/22 01:06:01;;;;;;;19.30;9.30;;;;;;;-145.18;100.00;60484.78;5039596;28;20448;-66
2022/05/22 01:08:27;;;;;;;23.40;9.03;;;;;;;-145.18;100.00;60484.78;5031144;28;20020;-66
2022/05/22 01:11:02;;;;;;;17.83;9.87;;;;;;;-145.18;100.00;60484.78;5040542;28;20099;-66
2022/05/22 01:13:42;;;;;;;20.47;10.10;;;;;;;-145.18;100.00;60484.78;5030761;28;20373;-66
2022/05/22 01:16:08;;;;;;;21.87;10.80;;;;;;;-145.18;100.00;60484.78;5040099;28;20046;-66
2022/05/22 01:18:45;;;;;;;17.43;9.87;;;;;;;-145.18;100.00;60484.78;5034577;28;20025;-66
2022/05/22 01:21:18;;;;;;;18.70;9.83;;;;;;;-145.18;100.00;60484.78;5039725;28;20029;-66
2022/05/22 01:23:45;;;;;;;23.67;12.10;;;;;;;-145.18;100.00;60484.78;5034909;28;20021;-66
2022/05/22 01:26:11;;;;;;;21.60;11.10;;;;;;;-145.18;100.00;60484.78;5036221;28;20017;-66
2022/05/22 01:28:37;;;;;;;25.57;12.37;;;;;;;-145.18;100.00;60484.78;5038637;28;20044;-66
2022/05/22 01:31:02;;;;;;;27.80;13.07;;;;;;;-145.18;100.00;60484.78;5038589;28;20671;-66
2022/05/22 01:33:28;;;;;;;27.23;12.97;;;;;;;-145.18;100.00;60484.78;5048205;28;20025;-66
2022/05/22 01:35:53;;;;;;;24.53;12.43;;;;;;;-145.18;100.00;60484.78;5047510;28;20029;-67
2022/05/22 01:38:19;;;;;;;22.60;12.30;;;;;;;-145.18;100.00;60484.78;5034769;28;20036;-66
2022/05/22 01:40:45;;;;;;;28.47;13.40;;;;;;;-145.18;100.00;60484.78;5037366;28;20022;-66
2022/05/22 01:43:10;;;;;;;27.23;13.27;;;;;;;-145.18;100.00;60484.78;5039868;28;20591;-66
2022/05/22 01:45:36;;;;;;;26.30;13.13;;;;;;;-145.18;100.00;60484.78;5045602;28;20116;-66
2022/05/22 01:48:01;;;;;;;25.40;13.00;;;;;;;-145.18;100.00;60484.78;5033086;28;20043;-67
2022/05/22 01:50:27;;;;;;;25.63;13.73;;;;;;;-145.18;100.00;60484.78;5041978;28;20021;-66
2022/05/22 01:52:53;;;;;;;26.80;14.53;;;;;;;-145.18;100.00;60484.78;5033762;28;20027;-66
2022/05/22 01:55:19;;;;;;;31.43;15.47;;;;;;;-145.18;100.00;60484.78;5036600;28;20029;-66
2022/05/22 01:57:44;;;;;;;28.57;16.70;;;;;;;-145.18;100.00;60484.78;5042241;28;20032;-67
2022/05/22 02:00:13;;;;;;;27.60;15.23;;;;;;;-145.18;100.00;60484.78;5043632;28;20211;-66
2022/05/22 02:02:38;;;;;;;32.30;16.67;;;;;;;-145.18;100.00;60484.78;5040602;28;20029;-66
2022/05/22 02:05:04;;;;;;;36.60;17.33;;;;;;;-145.18;100.00;60484.78;5045499;28;20033;-67
2022/05/22 02:10:13;;;;;;;29.73;15.40;;;;;;;-145.18;100.00;60484.78;5033454;28;20036;-66
2022/05/22 02:12:39;;;;;;;26.87;15.17;;;;;;;-145.18;100.00;60484.78;5034037;28;20037;-67
2022/05/22 02:15:06;;;;;;;29.03;14.67;;;;;;;-145.18;100.00;60484.78;5044390;28;20025;-67
2022/05/22 02:17:32;;;;;;;43.03;16.53;;;;;;;-145.18;100.00;60484.78;5036136;28;20480;-66
2022/05/22 02:19:58;;;;;;;42.13;17.73;;;;;;;-145.18;100.00;60484.78;5036009;28;20017;-66
2022/05/22 02:22:24;;;;;;;41.73;17.40;;;;;;;-145.18;100.00;60484.78;5035114;28;20345;-66
2022/05/22 02:24:50;;;;;;;35.87;16.53;;;;;;;-145.18;100.00;60484.78;5037054;28;20100;-66
2022/05/22 02:27:16;;;;;;;37.00;17.83;;;;;;;-145.18;100.00;60484.78;5032748;28;20060;-66
2022/05/22 02:29:42;;;;;;;37.93;18.67;;;;;;;-145.18;100.00;60484.78;5032878;28;20061;-66
2022/05/22 02:32:07;;;;;;;36.70;17.97;;;;;;;-145.18;100.00;60484.78;5040885;28;20429;-66
2022/05/22 02:34:33;;;;;;;36.80;18.30;;;;;;;-145.18;100.00;60484.78;5050277;28;20064;-66
2022/05/22 02:36:59;;;;;;;34.70;17.97;;;;;;;-145.18;100.00;60484.78;5041480;28;20033;-66
2022/05/22 02:39:25;;;;;;;42.77;20.10;;;;;;;-145.18;100.00;60484.78;5036425;28;20075;-66
2022/05/22 02:41:50;;;;;;;40.23;20.47;;;;;;;-145.18;100.00;60484.78;5039894;28;20036;-67
2022/05/22 02:44:16;;;;;;;48.33;21.40;;;;;;;-145.18;100.00;60484.78;5033538;28;20025;-67
2022/05/22 02:46:42;;;;;;;40.93;19.20;;;;;;;-145.18;100.00;60484.78;5044006;28;20024;-66
2022/05/22 02:49:08;;;;;;;47.10;21.33;;;;;;;-145.18;100.00;60484.78;5047217;28;20029;-66
2022/05/22 02:51:33;;;;;;;45.10;21.03;;;;;;;-145.18;100.00;60484.78;5032794;28;20057;-67
2022/05/22 02:53:58;;;;;;;49.13;22.97;;;;;;;-145.18;100.00;60484.78;5033356;28;20469;-66
2022/05/22 02:56:25;;;;;;;46.00;23.77;;;;;;;-145.18;100.00;60484.78;5032638;28;20071;-66
2022/05/22 02:58:50;;;;;;;49.30;23.53;;;;;;;-145.18;100.00;60484.78;5036241;28;20027;-66
2022/05/22 03:01:16;;;;;;;55.87;23.83;;;;;;;-145.18;100.00;60484.78;5031713;28;20017;-67
2022/05/22 03:03:41;;;;;;;57.17;23.57;;;;;;;-145.18;100.00;60484.78;5034659;28;20029;-66
2022/05/22 03:08:51;;;;;;;51.60;23.60;;;;;;;-145.18;100.00;60484.78;5044021;28;20044;-66
2022/05/22 03:11:17;;;;;;;46.53;22.03;;;;;;;-145.18;100.00;60484.78;5040038;28;20021;-67
2022/05/22 03:13:43;;;;;;;40.13;19.17;;;;;;;-145.18;100.00;60484.78;5046824;28;20075;-66
2022/05/22 03:16:08;;;;;;;35.50;18.60;;;;;;;-145.18;100.00;60484.78;5036910;28;20558;-67
2022/05/22 03:18:33;;;;;;;28.37;14.83;;;;;;;-145.18;100.00;60484.78;5032345;28;20104;-66
2022/05/22 03:20:59;;;;;;;31.97;15.93;;;;;;;-145.18;100.00;60484.78;5031978;28;20520;-66
2022/05/22 03:23:24;;;;;;;50.93;24.33;;;;;;;-145.18;100.00;60484.78;5039897;28;20033;-67
2022/05/22 03:25:50;;;;;;;69.67;27.67;;;;;;;-145.18;100.00;60484.78;5031161;28;20025;-67
2022/05/22 03:28:17;;;;;;;57.00;26.23;;;;;;;-145.18;100.00;60484.78;5047950;28;20025;-67
2022/05/22 03:30:43;;;;;;;68.87;27.40;;;;;;;-145.18;100.00;60484.78;5036594;28;20029;-67
2022/05/22 03:33:08;;;;;;;68.17;28.50;;;;;;;-145.18;100.00;60484.78;5034273;28;20072;-66
2022/05/22 03:35:33;;;;;;;72.23;27.23;;;;;;;-145.18;100.00;60484.78;5036930;28;20520;-66
2022/05/22 03:37:59;;;;;;;62.87;27.07;;;;;;;-145.18;100.00;60484.78;5039837;28;20033;-66
2022/05/22 03:40:25;;;;;;;56.33;25.87;;;;;;;-145.18;100.00;60484.78;5036222;28;20021;-66
2022/05/22 03:42:50;;;;;;;60.07;26.77;;;;;;;-145.18;100.00;60484.78;5035393;28;20017;-66
2022/05/22 03:45:16;;;;;;;64.83;27.83;;;;;;;-145.18;100.00;60484.78;5034981;28;20047;-66
2022/05/22 03:47:41;;;;;;;63.20;27.07;;;;;;;-145.18;100.00;60484.78;5033625;28;20033;-66
2022/05/22 03:50:09;;;;;;;57.57;24.50;;;;;;;-145.18;100.00;60484.78;5033580;28;20021;-66
2022/05/22 03:52:37;;;;;;;45.93;24.40;;;;;;;-145.18;100.00;60484.78;5037025;28;20123;-66
2022/05/22 03:55:07;;;;;;;50.20;24.40;;;;;;;-145.18;100.00;60484.78;5041203;28;20032;-66
2022/05/22 03:57:34;;;;;;;51.53;23.07;;;;;;;-145.18;100.00;60484.78;5038295;28;20078;-67
2022/05/22 04:00:03;;;;;;;48.87;23.00;;;;;;;-145.18;100.00;60484.78;5035273;28;20112;-66
2022/05/22 04:02:28;;;;;;;32.07;18.53;;;;;;;-145.18;100.00;60484.78;5032232;28;20497;-66
2022/05/22 04:04:54;;;;;;;32.17;15.27;;;;;;;-145.18;100.00;60484.78;5033620;28;20026;-66
2022/05/22 04:07:20;;;;;;;25.23;12.97;;;;;;;-145.18;100.00;60484.78;5047107;28;20020;-66
2022/05/22 04:09:46;;;;;;;20.40;11.63;;;;;;;-145.18;100.00;60484.78;5032256;28;20128;-66
2022/05/22 04:12:11;;;;;;;15.83;10.07;;;;;;;-145.18;100.00;60484.78;5044773;28;20201;-66
2022/05/22 04:14:37;;;;;;;17.13;8.50;;;;;;;-145.18;100.00;60484.78;5036352;28;20033;-67
2022/05/22 04:17:03;;;;;;;15.30;8.33;;;;;;;-145.18;100.00;60484.78;5034098;28;20040;-66
2022/05/22 04:19:29;;;;;;;11.50;6.40;;;;;;;-145.18;100.00;60484.78;5032102;28;20025;-66
2022/05/22 04:21:55;;;;;;;13.57;5.80;;;;;;;-145.18;100.00;60484.78;5038416;28;20044;-66
2022/05/22 04:27:05;;;;;;;13.83;5.10;;;;;;;-145.18;100.00;60484.78;5030457;28;20068;-66
2022/05/22 04:29:31;;;;;;;14.67;4.90;;;;;;;-145.18;100.00;60484.78;5030745;28;20041;-66
2022/05/22 04:31:57;;;;;;;11.17;4.90;;;;;;;-145.18;100.00;60484.78;5031797;28;20033;-66
2022/05/22 04:34:22;;;;;;;9.30;4.70;;;;;;;-145.18;100.00;60484.78;5030655;28;20384;-66
2022/05/22 04:36:47;;;;;;;8.87;4.17;;;;;;;-145.18;100.00;60484.78;5035559;28;20025;-66
2022/05/22 04:39:13;;;;;;;9.00;3.97;;;;;;;-145.18;100.00;60484.78;5033230;28;20033;-67
2022/05/22 04:41:38;;;;;;;9.03;3.90;;;;;;;-145.18;100.00;60484.78;5044080;28;20032;-67
2022/05/22 04:44:05;;;;;;;11.80;4.00;;;;;;;-145.18;100.00;60484.78;5030325;28;20025;-67
2022/05/22 04:46:30;;;;;;;9.37;4.20;;;;;;;-145.18;100.00;60484.78;5031332;28;20095;-67
2022/05/22 04:48:55;;;;;;;12.63;4.10;;;;;;;-145.18;100.00;60484.78;5039112;28;20103;-67
2022/05/22 04:51:21;;;;;;;9.67;3.60;;;;;;;-145.18;100.00;60484.78;5030090;28;20086;-67
2022/05/22 04:53:47;;;;;;;10.80;3.40;;;;;;;-145.18;100.00;60484.78;5030649;28;20030;-67
2022/05/22 04:56:12;;;;;;;11.87;3.83;;;;;;;-145.18;100.00;60484.78;5030340;28;20055;-67
2022/05/22 04:58:37;;;;;;;8.77;3.83;;;;;;;-145.18;100.00;60484.78;5035736;28;20021;-67
2022/05/22 05:01:07;;;;;;;9.87;3.30;;;;;;;-145.18;100.00;60484.78;5031817;28;20025;-67
2022/05/22 05:03:33;;;;;;;9.98;3.50;;;;;;;-145.18;100.00;60484.78;5030033;28;20063;-67
2022/05/22 05:05:59;;;;;;;11.15;3.40;;;;;;;-145.18;100.00;60484.78;5039786;28;20321;-67
2022/05/22 05:08:26;;;;;;;11.75;3.33;;;;;;;-145.18;100.00;60484.78;5039659;28;20037;-67
2022/05/22 05:10:52;;;;;;;9.55;3.25;;;;;;;-145.18;100.00;60484.78;5030186;28;20057;-67
2022/05/22 05:13:19;;;;;;;9.90;3.58;;;;;;;-145.18;100.00;60484.78;5039238;28;20028;-67
2022/05/22 05:15:44;;;;;;;12.63;3.25;;;;;;;-145.18;100.00;60484.78;5031188;28;20071;-67
2022/05/22 05:18:10;;;;;;;10.20;3.20;;;;;;;-145.18;100.00;60484.78;5037579;28;20111;-67
2022/05/22 05:20:37;;;;;;;11.02;3.20;;;;;;;-145.18;100.00;60484.78;5034511;28;20377;-67
2022/05/22 05:23:06;;;;;;;8.90;3.13;;;;;;;-145.18;100.00;60484.78;5031462;28;20405;-67
2022/05/22 05:25:32;;;;;;;9.38;3.38;;;;;;;-145.18;100.00;60484.78;5029530;28;20040;-67
2022/05/22 05:27:57;;;;;;;9.55;3.67;;;;;;;-145.18;100.00;60484.78;5031556;28;20489;-66
2022/05/22 05:30:22;;;;;;;12.43;3.53;;;;;;;-145.18;100.00;60484.78;5047327;28;20053;-67
2022/05/22 05:32:54;;;;;;;10.48;3.53;;;;;;;-145.18;100.00;60484.78;5030273;28;20044;-67
2022/05/22 05:35:20;;;;;;;11.00;3.38;;;;;;;-145.18;100.00;60484.78;5032738;28;20021;-67
2022/05/22 05:37:46;;;;;;;9.63;3.53;;;;;;;-145.18;100.00;60484.78;5045394;28;20367;-67
2022/05/22 05:40:12;;;;;;;12.52;3.30;;;;;;;-145.18;100.00;60484.78;5035968;28;20022;-67
2022/05/22 05:42:38;;;;;;;11.52;3.30;;;;;;;-145.18;100.00;60484.78;5040158;28;20043;-67
2022/05/22 05:45:06;;;;;;;10.52;3.20;;;;;;;-145.18;100.00;60484.78;5029825;28;20108;-67
2022/05/22 05:47:31;;;;;;;11.60;3.40;;;;;;;-145.18;100.00;60484.78;5046921;28;20036;-67
2022/05/22 05:49:57;;;;;;;7.53;2.83;;;;;;;-145.18;100.00;60484.78;5035619;28;20485;-67
2022/05/22 05:52:22;;;;;;;13.18;3.30;;;;;;;-145.18;100.00;60484.78;5043434;28;20029;-67
2022/05/22 05:54:47;;;;;;;10.95;3.30;;;;;;;-145.18;100.00;60484.78;5039257;28;20044;-67
2022/05/22 05:57:16;;;;;;;9.60;3.00;;;;;;;-145.18;100.00;60484.78;5036197;28;20041;-67
2022/05/22 05:59:42;;;;;;;7.25;3.28;;;;;;;-145.18;100.00;60484.78;5033261;28;20097;-67
2022/05/22 06:02:15;;;;;;;8.70;2.80;;;;;;;-145.18;100.00;60484.78;5032515;28;20033;-67
2022/05/22 06:04:41;;;;;;;9.63;2.95;;;;;;;-145.18;100.00;60484.78;5030262;28;20280;-67
2022/05/22 06:07:07;;;;;;;14.45;3.10;;;;;;;-145.18;100.00;60484.78;5042662;28;20025;-67
2022/05/22 06:09:32;;;;;;;12.80;3.65;;;;;;;-145.18;100.00;60484.78;5044332;28;20079;-67
2022/05/22 06:11:58;;;;;;;10.88;3.10;;;;;;;-145.18;100.00;60484.78;5035002;28;20029;-67
2022/05/22 06:14:23;;;;;;;12.20;3.88;;;;;;;-145.18;100.00;60484.78;5037048;28;20543;-67
2022/05/22 06:16:50;;;;;;;9.77;3.05;;;;;;;-145.18;100.00;60484.78;5033446;28;20045;-67
2022/05/22 06:19:15;;;;;;;8.95;3.10;;;;;;;-145.18;100.00;60484.78;5032911;28;20022;-67
2022/05/22 06:21:43;;;;;;;8.82;2.75;;;;;;;-145.18;100.00;60484.78;5033871;28;20044;-67
2022/05/22 06:24:08;;;;;;;9.90;2.70;;;;;;;-145.18;100.00;60484.78;5033958;28;20022;-67
2022/05/22 06:26:33;;;;;;;9.68;2.47;;;;;;;-145.18;100.00;60484.78;5033237;28;20083;-67
2022/05/22 06:28:59;;;;;;;9.43;2.53;;;;;;;-145.18;100.00;60484.78;5037245;28;20043;-67
2022/05/22 06:31:24;;;;;;;9.93;2.90;;;;;;;-145.18;100.00;60484.78;5034201;28;20104;-67
2022/05/22 06:33:50;;;;;;;9.13;3.08;;;;;;;-145.18;100.00;60484.78;5044620;28;20523;-67
2022/05/22 06:36:15;;;;;;;8.77;2.30;;;;;;;-145.18;100.00;60484.78;5043507;28;20064;-67
2022/05/22 06:41:26;;;;;;;10.30;2.38;;;;;;;-145.18;100.00;60484.78;5032975;28;20040;-67
2022/05/22 06:43:52;;;;;;;8.07;1.92;;;;;;;-145.18;100.00;60484.78;5032808;28;20025;-67
2022/05/22 06:46:18;;;;;;;8.52;2.20;;;;;;;-145.18;100.00;60484.78;5037074;28;20076;-67
2022/05/22 06:48:44;;;;;;;8.35;2.65;;;;;;;-145.18;100.00;60484.78;5045163;28;20017;-67
2022/05/22 06:51:10;;;;;;;9.60;2.22;;;;;;;-145.18;100.00;60484.78;5031857;28;20036;-67
2022/05/22 06:53:35;;;;;;;12.30;2.20;;;;;;;-145.18;100.00;60484.78;5037144;28;20017;-67
2022/05/22 06:56:00;;;;;;;7.15;2.00;;;;;;;-145.18;100.00;60484.78;5036787;28;20024;-67
2022/05/22 06:58:26;;;;;;;11.13;2.10;;;;;;;-145.18;100.00;60484.78;5035770;28;20032;-67
2022/05/22 07:00:52;;;;;;;7.65;2.13;;;;;;;-145.18;100.00;60484.78;5033610;28;20048;-67
2022/05/22 07:03:18;;;;;;;9.00;2.10;;;;;;;-145.18;100.00;60484.78;5040241;28;20035;-67
2022/05/22 07:05:43;;;;;;;7.40;1.95;;;;;;;-145.18;100.00;60484.78;5031763;28;20458;-67
2022/05/22 07:08:09;;;;;;;5.13;1.73;;;;;;;-145.18;100.00;60484.78;5034571;28;20104;-67
2022/05/22 07:13:18;;;;;;;6.80;1.90;;;;;;;-145.18;100.00;60484.78;5042364;28;20039;-67
2022/05/22 07:15:44;;;;;;;7.47;2.20;;;;;;;-145.18;100.00;60484.78;5036788;28;20356;-67
2022/05/22 07:18:09;;;;;;;8.45;2.45;;;;;;;-145.18;100.00;60484.78;5030324;28;20025;-67
2022/05/22 07:20:35;;;;;;;7.13;1.90;;;;;;;-145.18;100.00;60484.78;5026675;28;20029;-67
2022/05/22 07:23:00;;;;;;;10.60;1.88;;;;;;;-145.18;100.00;60484.78;5030366;28;20049;-67
2022/05/22 07:25:26;;;;;;;8.57;2.00;;;;;;;-145.18;100.00;60484.78;5028121;28;20024;-67
2022/05/22 07:27:51;;;;;;;8.25;2.10;;;;;;;-145.18;100.00;60484.78;5035145;28;20109;-67
2022/05/22 07:30:17;;;;;;;9.00;1.60;;;;;;;-145.18;100.00;60484.78;5041111;28;20108;-67
2022/05/22 07:32:43;;;;;;;8.07;1.70;;;;;;;-145.18;100.00;60484.78;5035461;28;20026;-67
2022/05/22 07:35:08;;;;;;;6.70;1.73;;;;;;;-145.18;100.00;60484.78;5038470;28;20089;-67
2022/05/22 07:37:34;;;;;;;7.40;1.88;;;;;;;-145.18;100.00;60484.78;5033949;28;20037;-67
2022/05/22 07:39:59;;;;;;;7.53;1.30;;;;;;;-145.18;100.00;60484.78;5039825;28;20112;-67
2022/05/22 07:42:24;;;;;;;5.25;1.30;;;;;;;-145.18;100.00;60484.78;5034894;28;20022;-67
2022/05/22 07:44:50;;;;;;;8.85;1.58;;;;;;;-145.18;100.00;60484.78;5035094;28;20689;-67
2022/05/22 07:47:15;;;;;;;6.25;1.73;;;;;;;-145.18;100.00;60484.78;5025945;28;20075;-67
2022/05/22 07:52:26;;;;;;;5.38;1.10;;;;;;;-145.18;100.00;60484.78;5031756;28;20125;-67
2022/05/22 07:54:51;;;;;;;6.75;2.72;;;;;;;-145.18;100.00;60484.78;5024643;28;20531;-67
2022/05/22 07:57:17;;;;;;;4.50;1.08;;;;;;;-145.18;100.00;60484.78;5040407;28;20033;-67
2022/05/22 07:59:43;;;;;;;5.05;1.38;;;;;;;-145.18;100.00;60484.78;5036536;28;20025;-68
2022/05/22 08:02:13;;;;;;;4.88;1.25;;;;;;;-145.18;100.00;60484.78;5041469;28;20451;-67
2022/05/22 08:04:40;;;;;;;6.97;1.30;;;;;;;-145.18;100.00;60484.78;5031340;28;20433;-67
2022/05/22 08:07:05;;;;;;;6.68;1.55;;;;;;;-145.18;100.00;60484.78;5033917;28;20120;-68
2022/05/22 08:09:31;;;;;;;5.93;1.48;;;;;;;-145.18;100.00;60484.78;5025774;28;20072;-68
2022/05/22 08:11:56;;;;;;;5.60;1.48;;;;;;;-145.18;100.00;60484.78;5028943;28;20041;-67
2022/05/22 08:14:22;;;;;;;6.63;1.70;;;;;;;-145.18;100.00;60484.78;5036852;28;20112;-67
2022/05/22 08:16:47;;;;;;;5.10;1.38;;;;;;;-145.18;100.00;60484.78;5029608;28;20029;-68
2022/05/22 08:19:12;;;;;;;6.40;1.80;;;;;;;-145.18;100.00;60484.78;5030327;28;20025;-67
2022/05/22 08:21:38;;;;;;;7.00;1.70;;;;;;;-145.18;100.00;60484.78;5038563;28;20040;-67
2022/05/22 08:24:04;;;;;;;6.72;1.58;;;;;;;-145.18;100.00;60484.78;5027496;28;20027;-67
2022/05/22 08:26:29;;;;;;;6.28;1.58;;;;;;;-145.18;100.00;60484.78;5029741;28;20103;-67
2022/05/22 08:28:55;;;;;;;5.43;1.33;;;;;;;-145.18;100.00;60484.78;5032917;28;20370;-67
2022/05/22 08:31:20;;;;;;;6.00;1.50;;;;;;;-145.18;100.00;60484.78;5030900;28;20026;-67
2022/05/22 08:33:46;;;;;;;6.45;1.35;;;;;;;-145.18;100.00;60484.78;5025751;28;20432;-67
2022/05/22 08:36:11;;;;;;;7.07;1.75;;;;;;;-145.18;100.00;60484.78;5031521;28;20478;-68
2022/05/22 08:38:37;;;;;;;6.28;1.23;;;;;;;-145.18;100.00;60484.78;5030368;28;20484;-67
2022/05/22 08:41:19;;;;;;;6.90;1.40;;;;;;;-145.18;100.00;60484.78;5031243;28;20028;-67
2022/05/22 08:43:51;;;;;;;4.00;1.30;;;;;;;-145.18;100.00;60484.78;5031728;28;20037;-67
2022/05/22 08:46:23;;;;;;;5.45;1.13;;;;;;;-145.18;100.00;60484.78;5024599;28;20035;-67
2022/05/22 08:48:58;;;;;;;4.90;1.30;;;;;;;-145.18;100.00;60484.78;5028684;28;20078;-67
2022/05/22 08:51:29;;;;;;;6.32;1.35;;;;;;;-145.18;100.00;60484.78;5033908;28;20028;-67
2022/05/22 08:53:59;;;;;;;7.28;1.45;;;;;;;-145.18;100.00;60484.78;5036519;28;20393;-67
2022/05/22 08:59:29;;;;;;;8.50;1.70;;;;;;;-145.18;100.00;60484.78;5036319;28;20301;-67
2022/05/22 09:02:32;;;;;;;6.35;1.60;;;;;;;-145.18;100.00;60484.78;5033686;28;20032;-67
2022/05/22 09:05:11;;;;;;;6.55;1.70;;;;;;;-145.18;100.00;60484.78;5023693;28;20029;-68
2022/05/22 09:08:06;;;;;;;7.18;1.60;;;;;;;-145.18;100.00;60484.78;5030269;28;20743;-68
2022/05/22 09:10:59;;;;;;;6.47;1.50;;;;;;;-145.18;100.00;60484.78;5028917;28;20525;-68
2022/05/22 09:13:36;;;;;;;4.13;1.05;;;;;;;-145.18;100.00;60484.78;5026623;28;20619;-67
2022/05/22 09:16:05;;;;;;;6.07;1.60;;;;;;;-145.18;100.00;60484.78;5021926;28;20764;-67
2022/05/22 09:18:54;;;;;;;7.53;2.00;;;;;;;-145.18;100.00;60484.78;5023832;28;20160;-68
2022/05/22 09:21:38;;;;;;;6.18;1.50;;;;;;;-145.18;100.00;60484.78;5021534;28;20111;-68
2022/05/22 09:24:07;;;;;;;7.45;1.60;;;;;;;-145.18;100.00;60484.78;5024606;28;20033;-68
2022/05/22 09:26:41;;;;;;;5.30;1.40;;;;;;;-145.18;100.00;60484.78;5026882;28;20030;-68
2022/05/22 09:29:28;;;;;;;6.85;1.70;;;;;;;-145.18;100.00;60484.78;5031194;28;20610;-68
2022/05/22 09:32:12;;;;;;;5.25;1.42;;;;;;;-145.18;100.00;60484.78;5031274;28;20032;-68
2022/05/22 09:34:53;;;;;;;6.32;1.60;;;;;;;-145.18;100.00;60484.78;5029857;28;20037;-67
2022/05/22 09:37:25;;;;;;;5.63;1.35;;;;;;;-145.18;100.00;60484.78;5029762;28;20374;-68
2022/05/22 09:40:20;;;;;;;6.25;1.40;;;;;;;-145.18;100.00;60484.78;5040169;28;20025;-68
2022/05/22 09:43:06;;;;;;;6.03;1.45;;;;;;;-145.18;100.00;60484.78;5038095;28;20029;-67
2022/05/22 09:45:44;;;;;;;6.45;1.60;;;;;;;-145.18;100.00;60484.78;5032544;28;20073;-67
2022/05/22 09:48:09;;;;;;;7.63;1.85;;;;;;;-145.18;100.00;60484.78;5036449;28;20041;-67
2022/05/22 09:50:47;;;;;;;6.65;1.67;;;;;;;-145.18;100.00;60484.78;5031656;28;20508;-67
2022/05/22 09:53:18;;;;;;;6.28;1.70;;;;;;;-145.18;100.00;60484.78;5037745;28;20033;-67
2022/05/22 09:55:47;;;;;;;;;;;;;;;-145.18;100.00;60484.78;5036395;28;20037;-67
2022/05/22 09:58:27;;;;;;;4.38;1.30;;;;;;;-145.18;100.00;60484.78;5031801;28;19917;-67
2022/05/22 10:01:10;;;;;;;5.72;1.50;;;;;;;-145.18;100.00;60484.78;5033453;28;20074;-68
2022/05/22 10:03:40;;;;;;;4.28;1.35;;;;;;;-145.18;100.00;60484.78;5031988;28;20037;-67
2022/05/22 10:06:31;;;;;;;5.40;1.50;;;;;;;-145.18;100.00;60484.78;5032649;28;20086;-67
2022/05/22 10:09:33;;;;;;;5.40;1.52;;;;;;;-145.18;100.00;60484.78;5031012;28;20107;-68
2022/05/22 10:12:29;;;;;;;6.43;1.40;;;;;;;-145.18;100.00;60484.78;5032657;28;20076;-68
2022/05/22 10:14:54;;;;;;;5.22;1.40;;;;;;;-145.18;100.00;60484.78;5034389;28;20393;-68
2022/05/22 10:17:43;;;;;;;7.65;1.30;;;;;;;-145.18;100.00;60484.78;5046591;28;20029;-67
2022/05/22 10:20:23;;;;;;;6.85;1.30;;;;;;;-145.18;100.00;60484.78;5045586;28;20491;-68
2022/05/22 10:23:01;;;;;;;5.28;1.30;;;;;;;-145.18;100.00;60484.78;5033253;28;20396;-68
2022/05/22 10:25:41;;;;;;;5.53;1.65;;;;;;;-145.18;100.00;60484.78;5034737;28;20033;-67
2022/05/22 10:28:16;;;;;;;5.68;1.80;;;;;;;-145.18;100.00;60484.78;5032808;28;20037;-67
2022/05/22 10:31:08;;;;;;;4.85;1.40;;;;;;;-145.18;100.00;60484.78;5032602;28;20056;-67
2022/05/22 10:33:58;;;;;;;5.63;1.35;;;;;;;-145.18;100.00;60484.78;5035057;28;20041;-67
2022/05/22 10:36:46;;;;;;;5.33;1.20;;;;;;;-145.18;100.00;60484.78;5034795;28;20043;-68
2022/05/22 10:39:14;;;;;;;5.18;1.30;;;;;;;-145.18;100.00;60484.78;5035932;28;20052;-68
2022/05/22 10:44:53;;;;;;;5.18;1.08;;;;;;;-145.18;100.00;60484.78;5032762;28;20137;-68
2022/05/22 10:47:30;;;;;;;6.03;1.40;;;;;;;-145.18;100.00;60484.78;5033349;28;20076;-67
2022/05/22 10:49:57;;;;;;;5.75;1.42;;;;;;;-145.18;100.00;60484.78;5042609;28;20116;-67
2022/05/22 10:52:26;;;;;;;5.78;1.40;;;;;;;-145.18;100.00;60484.78;5038007;28;20068;-67
2022/05/22 10:54:54;;;;;;;5.22;1.35;;;;;;;-145.18;100.00;60484.78;5043986;28;20065;-67
2022/05/22 10:57:26;;;;;;;4.85;1.48;;;;;;;-145.18;100.00;60484.78;5040481;28;20033;-67
2022/05/22 10:59:52;;;;;;;8.05;1.45;;;;;;;-145.18;100.00;60484.78;5030617;28;20385;-68
2022/05/22 11:02:29;;;;;;;5.50;1.30;;;;;;;-145.18;100.00;60484.78;5034254;28;20520;-67
2022/05/22 11:04:57;;;;;;;5.57;1.60;;;;;;;-145.18;100.00;60484.78;5035893;28;20036;-68
2022/05/22 11:07:51;;;;;;;8.10;1.50;;;;;;;-145.18;100.00;60484.78;5045328;28;20033;-68
2022/05/22 11:10:34;;;;;;;6.97;1.50;;;;;;;-145.18;100.00;60484.78;5029919;28;20045;-67
2022/05/22 11:13:19;;;;;;;4.75;1.30;;;;;;;-145.18;100.00;60484.78;5034489;28;20037;-67
2022/05/22 11:15:45;;;;;;;5.50;1.20;;;;;;;-145.18;100.00;60484.78;5044488;28;20037;-67
2022/05/22 11:18:20;;;;;;;9.32;1.27;;;;;;;-145.18;100.00;60484.78;5039773;28;20382;-67
2022/05/22 11:21:07;;;;;;;6.53;1.70;;;;;;;-145.18;100.00;60484.78;5033093;28;20389;-67
2022/05/22 11:24:00;;;;;;;7.05;1.50;;;;;;;-145.18;100.00;60484.78;5035311;28;20029;-67
2022/05/22 11:26:35;;;;;;;5.25;1.40;;;;;;;-145.18;100.00;60484.78;5030628;28;20055;-67
2022/05/22 11:29:37;;;;;;;6.45;1.60;;;;;;;-145.18;100.00;60484.78;5030643;28;20095;-67
2022/05/22 11:32:18;;;;;;;4.55;1.30;;;;;;;-145.18;100.00;60484.78;5032095;28;20039;-68
2022/05/22 11:34:51;;;;;;;4.90;1.58;;;;;;;-145.18;100.00;60484.78;5036729;28;20399;-67
2022/05/22 11:37:23;;;;;;;5.95;1.38;;;;;;;-145.18;100.00;60484.78;5032462;28;20068;-67